Time,TemperatureF,DewpointF,PressureIn,WindDirection,WindDirectionDegrees,WindSpeedMPH,WindSpeedGustMPH,Humidity,HourlyPrecipIn,Conditions,Clouds,dailyrainin,SolarRadiationWatts/m^2,SoftwareType,DateUTC
2013-06-28 00:01:00,66.2,60.2,25.96,NW,313,1.0,1.0,81,0.00,,,0.00,0,Wunderground v.1.15,2013-06-28 06:01:00,
2013-06-28 00:10:00,65.9,60.2,25.96,West,260,1.0,1.0,82,0.00,,,0.00,0,Wunderground v.1.15,2013-06-28 06:10:00,
2013-06-28 00:15:00,65.7,60.4,25.96,NNE,18,1.0,1.0,83,0.00,,,0.00,0,Wunderground v.1.15,2013-06-28 06:15:00,
2013-06-28 00:20:00,65.5,60.5,25.96,NNW,336,1.0,6.0,84,0.00,,,0.00,0,Wunderground v.1.15,2013-06-28 06:20:00,
2013-06-28 00:30:00,65.2,60.6,25.96,East,99,1.0,4.0,85,0.00,,,0.00,0,Wunderground v.1.15,2013-06-28 06:30:00,
2013-06-28 00:40:00,65.1,60.5,25.96,North,5,1.0,1.0,85,0.00,,,0.00,0,Wunderground v.1.15,2013-06-28 06:40:00,
2013-06-28 00:45:00,65.1,60.8,25.96,NW,309,1.0,4.0,86,0.00,,,0.00,0,Wunderground v.1.15,2013-06-28 06:45:00,
2013-06-28 00:55:00,64.9,60.6,25.96,West,275,2.0,2.0,86,0.00,,,0.00,0,Wunderground v.1.15,2013-06-28 06:55:00,
2013-06-28 01:00:00,64.7,60.4,25.96,WSW,240,2.0,3.0,86,0.00,,,0.00,0,Wunderground v.1.15,2013-06-28 07:00:00,
2013-06-28 01:10:00,64.6,60.6,25.96,East,92,3.0,3.0,87,0.00,,,0.00,0,Wunderground v.1.15,2013-06-28 07:10:00,
2013-06-28 01:15:00,64.6,60.6,25.95,East,93,1.0,3.0,87,0.00,,,0.00,0,Wunderground v.1.15,2013-06-28 07:15:00,
2013-06-28 01:25:00,64.6,60.6,25.95,East,92,0.0,1.0,87,0.00,,,0.00,0,Wunderground v.1.15,2013-06-28 07:25:00,
2013-06-28 01:30:00,64.6,60.3,25.95,East,92,0.0,0.0,86,0.00,,,0.00,0,Wunderground v.1.15,2013-06-28 07:30:00,
2013-06-28 01:40:00,64.4,60.1,25.95,East,92,0.0,0.0,86,0.00,,,0.00,0,Wunderground v.1.15,2013-06-28 07:40:00,
2013-06-28 01:45:00,64.4,60.1,25.94,East,92,0.0,0.0,86,0.00,,,0.00,0,Wunderground v.1.15,2013-06-28 07:45:00,
2013-06-28 01:55:00,64.6,60.6,25.95,East,92,0.0,2.0,87,0.00,,,0.00,0,Wunderground v.1.15,2013-06-28 07:55:00,
2013-06-28 02:00:00,64.7,60.7,25.95,East,93,0.0,0.0,87,0.00,,,0.00,0,Wunderground v.1.15,2013-06-28 08:00:00,
2013-06-28 02:05:00,64.9,60.9,25.95,East,92,0.0,0.0,87,0.00,,,0.00,0,Wunderground v.1.15,2013-06-28 08:05:00,
2013-06-28 02:10:00,64.9,60.9,25.95,East,93,0.0,0.0,87,0.00,,,0.00,0,Wunderground v.1.15,2013-06-28 08:10:00,
2013-06-28 02:20:00,64.9,60.9,25.94,East,93,0.0,0.0,87,0.00,,,0.00,0,Wunderground v.1.15,2013-06-28 08:20:00,
2013-06-28 02:25:00,64.9,60.6,25.94,East,93,0.0,0.0,86,0.00,,,0.00,0,Wunderground v.1.15,2013-06-28 08:25:00,
2013-06-28 02:30:00,64.9,60.9,25.94,East,93,0.0,0.0,87,0.00,,,0.00,0,Wunderground v.1.15,2013-06-28 08:30:00,
2013-06-28 02:35:00,64.9,60.6,25.94,East,93,0.0,0.0,86,0.00,,,0.00,0,Wunderground v.1.15,2013-06-28 08:35:00,
2013-06-28 02:40:00,64.9,60.6,25.94,East,93,0.0,0.0,86,0.00,,,0.00,0,Wunderground v.1.15,2013-06-28 08:40:00,
2013-06-28 02:45:00,64.7,60.4,25.94,East,93,0.0,0.0,86,0.00,,,0.00,0,Wunderground v.1.15,2013-06-28 08:45:00,
2013-06-28 02:55:00,64.7,60.4,25.94,East,93,0.0,0.0,86,0.00,,,0.00,0,Wunderground v.1.15,2013-06-28 08:55:00,
2013-06-28 03:00:00,64.7,60.4,25.93,East,93,0.0,0.0,86,0.00,,,0.00,0,Wunderground v.1.15,2013-06-28 09:00:00,
2013-06-28 03:10:00,64.6,60.6,25.93,East,93,0.0,0.0,87,0.00,,,0.00,0,Wunderground v.1.15,2013-06-28 09:10:00,
2013-06-28 03:15:00,64.6,60.3,25.93,East,93,0.0,0.0,86,0.00,,,0.00,0,Wunderground v.1.15,2013-06-28 09:15:00,
2013-06-28 03:20:00,64.6,60.3,25.93,SE,129,0.0,2.0,86,0.00,,,0.00,0,Wunderground v.1.15,2013-06-28 09:20:00,
2013-06-28 03:25:00,64.6,59.7,25.93,NE,36,1.0,2.0,84,0.00,,,0.00,0,Wunderground v.1.15,2013-06-28 09:25:00,
2013-06-28 03:30:00,64.9,59.6,25.92,East,96,2.0,2.0,83,0.00,,,0.00,0,Wunderground v.1.15,2013-06-28 09:30:00,
2013-06-28 03:40:00,65.4,59.8,25.92,SE,125,3.0,3.0,82,0.00,,,0.00,0,Wunderground v.1.15,2013-06-28 09:40:00,
2013-06-28 03:45:00,65.4,59.8,25.92,ENE,60,2.0,3.0,82,0.00,,,0.00,0,Wunderground v.1.15,2013-06-28 09:45:00,
2013-06-28 03:50:00,65.5,59.9,25.92,ENE,68,2.0,2.0,82,0.00,,,0.00,0,Wunderground v.1.15,2013-06-28 09:50:00,
2013-06-28 04:00:00,65.4,60.1,25.92,ENE,68,0.0,0.0,83,0.00,,,0.00,0,Wunderground v.1.15,2013-06-28 10:00:00,
2013-06-28 04:05:00,65.2,59.9,25.92,ENE,68,0.0,0.0,83,0.00,,,0.00,0,Wunderground v.1.15,2013-06-28 10:05:00,
2013-06-28 04:10:00,64.9,59.9,25.92,ENE,68,0.0,0.0,84,0.00,,,0.00,0,Wunderground v.1.15,2013-06-28 10:10:00,
2013-06-28 04:15:00,64.7,59.8,25.93,ENE,68,0.0,0.0,84,0.00,,,0.00,0,Wunderground v.1.15,2013-06-28 10:15:00,
2013-06-28 04:20:00,64.6,60.0,25.93,ENE,68,0.0,1.0,85,0.00,,,0.00,0,Wunderground v.1.15,2013-06-28 10:20:00,
2013-06-28 04:30:00,64.4,59.8,25.92,ENE,68,0.0,0.0,85,0.00,,,0.00,0,Wunderground v.1.15,2013-06-28 10:30:00,
2013-06-28 04:40:00,64.6,60.3,25.92,SE,137,2.0,5.0,86,0.00,,,0.00,0,Wunderground v.1.15,2013-06-28 10:40:00,
2013-06-28 04:45:00,64.7,60.4,25.92,SE,145,3.0,5.0,86,0.00,,,0.00,0,Wunderground v.1.15,2013-06-28 10:45:00,
2013-06-28 04:50:00,64.7,60.1,25.92,SSE,159,3.0,3.0,85,0.00,,,0.00,0,Wunderground v.1.15,2013-06-28 10:50:00,
2013-06-28 04:55:00,64.9,60.3,25.92,East,99,2.0,3.0,85,0.00,,,0.00,0,Wunderground v.1.15,2013-06-28 10:55:00,
2013-06-28 05:00:00,64.9,60.6,25.91,ESE,109,1.0,1.0,86,0.00,,,0.00,0,Wunderground v.1.15,2013-06-28 11:00:00,
2013-06-28 05:05:00,64.7,60.4,25.92,SSE,153,1.0,5.0,86,0.00,,,0.00,0,Wunderground v.1.15,2013-06-28 11:05:00,
2013-06-28 05:10:00,64.7,60.4,25.92,SSE,150,2.0,2.0,86,0.00,,,0.00,0,Wunderground v.1.15,2013-06-28 11:10:00,
2013-06-28 05:15:00,64.6,59.7,25.92,SSE,153,3.0,3.0,84,0.00,,,0.00,7,Wunderground v.1.15,2013-06-28 11:15:00,
2013-06-28 05:20:00,64.7,59.1,25.92,ENE,69,2.0,2.0,82,0.00,,,0.00,11,Wunderground v.1.15,2013-06-28 11:20:00,
2013-06-28 05:30:00,64.7,60.1,25.92,East,95,2.0,2.0,85,0.00,,,0.00,16,Wunderground v.1.15,2013-06-28 11:30:00,
2013-06-28 05:35:00,64.7,60.1,25.92,NE,50,2.0,2.0,85,0.00,,,0.00,26,Wunderground v.1.15,2013-06-28 11:35:00,
2013-06-28 05:40:00,64.7,60.1,25.93,ENE,77,2.0,2.0,85,0.00,,,0.00,33,Wunderground v.1.15,2013-06-28 11:40:00,
2013-06-28 05:45:00,64.6,60.0,25.93,NE,51,3.0,5.0,85,0.00,,,0.00,37,Wunderground v.1.15,2013-06-28 11:45:00,
2013-06-28 05:55:00,64.7,59.4,25.93,ESE,109,2.0,4.0,83,0.00,,,0.00,77,Wunderground v.1.15,2013-06-28 11:55:00,
2013-06-28 06:00:00,65.1,59.5,25.93,ENE,65,3.0,3.0,82,0.00,,,0.00,84,Wunderground v.1.15,2013-06-28 12:00:00,
2013-06-28 06:05:00,65.4,59.4,25.93,ESE,115,2.0,4.0,81,0.00,,,0.00,93,Wunderground v.1.15,2013-06-28 12:05:00,
2013-06-28 06:10:00,65.5,59.5,25.93,East,82,2.0,2.0,81,0.00,,,0.00,97,Wunderground v.1.15,2013-06-28 12:10:00,
2013-06-28 06:15:00,65.7,59.7,25.93,East,83,2.0,2.0,81,0.00,,,0.00,105,Wunderground v.1.15,2013-06-28 12:15:00,
2013-06-28 06:20:00,65.9,59.6,25.94,East,86,1.0,1.0,80,0.00,,,0.00,123,Wunderground v.1.15,2013-06-28 12:20:00,
2013-06-28 06:30:00,66.3,59.2,25.94,ESE,121,2.0,5.0,78,0.00,,,0.00,137,Wunderground v.1.15,2013-06-28 12:30:00,
2013-06-28 06:35:00,66.7,59.3,25.94,SE,129,2.0,6.0,77,0.00,,,0.00,167,Wunderground v.1.15,2013-06-28 12:35:00,
2013-06-28 06:40:00,66.8,59.4,25.94,South,174,3.0,3.0,77,0.00,,,0.00,135,Wunderground v.1.15,2013-06-28 12:40:00,
2013-06-28 06:45:00,66.8,59.0,25.94,ENE,76,4.0,5.0,76,0.00,,,0.00,125,Wunderground v.1.15,2013-06-28 12:45:00,
2013-06-28 06:50:00,66.7,59.3,25.95,ESE,108,4.0,4.0,77,0.00,,,0.00,104,Wunderground v.1.15,2013-06-28 12:50:00,
2013-06-28 06:55:00,66.7,59.3,25.95,ESE,120,4.0,4.0,77,0.00,,,0.00,132,Wunderground v.1.15,2013-06-28 12:55:00,
2013-06-28 07:10:00,67.2,59.4,25.96,SE,124,3.0,5.0,76,0.00,,,0.00,127,Wunderground v.1.15,2013-06-28 13:10:00,
2013-06-28 07:15:00,67.5,59.3,25.95,SSE,147,4.0,5.0,75,0.00,,,0.00,179,Wunderground v.1.15,2013-06-28 13:15:00,
2013-06-28 07:25:00,68.0,59.4,25.95,SE,138,5.0,5.0,74,0.00,,,0.00,206,Wunderground v.1.15,2013-06-28 13:25:00,
2013-06-28 07:30:00,68.3,59.7,25.96,SSE,163,5.0,5.0,74,0.00,,,0.00,225,Wunderground v.1.15,2013-06-28 13:30:00,
2013-06-28 07:40:00,68.3,59.7,25.96,NE,44,4.0,4.0,74,0.00,,,0.00,257,Wunderground v.1.15,2013-06-28 13:40:00,
2013-06-28 07:45:00,68.5,59.9,25.96,ENE,68,4.0,8.0,74,0.00,,,0.00,302,Wunderground v.1.15,2013-06-28 13:45:00,
2013-06-28 07:50:00,68.7,60.1,25.96,ENE,77,3.0,3.0,74,0.00,,,0.00,355,Wunderground v.1.15,2013-06-28 13:50:00,
2013-06-28 07:55:00,69.2,59.8,25.96,ESE,108,4.0,4.0,72,0.00,,,0.00,272,Wunderground v.1.15,2013-06-28 13:55:00,
2013-06-28 08:05:00,70.0,60.2,25.97,NE,34,5.0,8.0,71,0.00,,,0.00,271,Wunderground v.1.15,2013-06-28 14:05:00,
2013-06-28 08:10:00,69.8,60.0,25.97,SSW,193,5.0,5.0,71,0.00,,,0.00,267,Wunderground v.1.15,2013-06-28 14:10:00,
2013-06-28 08:15:00,69.8,60.0,25.97,SE,126,4.0,5.0,71,0.00,,,0.00,250,Wunderground v.1.15,2013-06-28 14:15:00,
2013-06-28 08:20:00,70.0,59.8,25.97,SE,143,4.0,4.0,70,0.00,,,0.00,248,Wunderground v.1.15,2013-06-28 14:20:00,
2013-06-28 08:25:00,70.2,60.0,25.97,SSW,192,4.0,4.0,70,0.00,,,0.00,221,Wunderground v.1.15,2013-06-28 14:25:00,
2013-06-28 08:30:00,70.0,59.8,25.97,SSE,163,3.0,3.0,70,0.00,,,0.00,258,Wunderground v.1.15,2013-06-28 14:30:00,
2013-06-28 08:35:00,70.0,59.8,25.97,SE,144,4.0,5.0,70,0.00,,,0.00,301,Wunderground v.1.15,2013-06-28 14:35:00,
2013-06-28 08:40:00,70.3,59.6,25.97,SSE,147,4.0,5.0,69,0.00,,,0.00,339,Wunderground v.1.15,2013-06-28 14:40:00,
2013-06-28 08:45:00,70.5,59.8,25.97,ENE,65,5.0,5.0,69,0.00,,,0.00,364,Wunderground v.1.15,2013-06-28 14:45:00,
2013-06-28 08:50:00,70.7,59.6,25.97,NNW,332,5.0,5.0,68,0.00,,,0.00,343,Wunderground v.1.15,2013-06-28 14:50:00,
2013-06-28 09:00:00,70.8,59.7,25.98,SE,137,3.0,3.0,68,0.00,,,0.00,229,Wunderground v.1.15,2013-06-28 15:00:00,
2013-06-28 09:06:00,71.2,60.1,25.98,ENE,70,3.0,3.0,68,0.00,,,0.00,204,Wunderground v.1.15,2013-06-28 15:06:00,
2013-06-28 09:16:00,71.0,59.9,25.98,ENE,70,2.0,3.0,68,0.00,,,0.00,339,Wunderground v.1.15,2013-06-28 15:16:00,
2013-06-28 09:25:00,72.2,60.2,25.98,South,171,2.0,4.0,66,0.00,,,0.00,668,Wunderground v.1.15,2013-06-28 15:25:00,
2013-06-28 09:30:00,73.1,59.8,25.98,ESE,110,2.0,2.0,63,0.00,,,0.00,403,Wunderground v.1.15,2013-06-28 15:30:00,
2013-06-28 09:35:00,73.1,60.6,25.98,NNE,19,3.0,3.0,65,0.00,,,0.00,439,Wunderground v.1.15,2013-06-28 15:35:00,
2013-06-28 09:40:00,73.1,60.6,25.97,North,355,2.0,2.0,65,0.00,,,0.00,510,Wunderground v.1.15,2013-06-28 15:40:00,
2013-06-28 09:45:00,73.1,60.2,25.97,SE,133,2.0,2.0,64,0.00,,,0.00,515,Wunderground v.1.15,2013-06-28 15:45:00,
2013-06-28 09:55:00,73.8,60.9,25.97,NW,322,1.0,4.0,64,0.00,,,0.00,387,Wunderground v.1.15,2013-06-28 15:55:00,
2013-06-28 10:00:00,73.4,59.6,25.97,SW,236,2.0,2.0,62,0.00,,,0.00,371,Wunderground v.1.15,2013-06-28 16:00:00,
2013-06-28 10:05:00,73.4,60.5,25.97,East,89,2.0,2.0,64,0.00,,,0.00,367,Wunderground v.1.15,2013-06-28 16:05:00,
2013-06-28 10:10:00,73.6,60.7,25.97,SE,129,1.0,2.0,64,0.00,,,0.00,360,Wunderground v.1.15,2013-06-28 16:10:00,
2013-06-28 10:20:00,73.4,60.0,25.97,East,96,2.0,2.0,63,0.00,,,0.00,323,Wunderground v.1.15,2013-06-28 16:20:00,
2013-06-28 10:25:00,73.1,60.6,25.97,ESE,114,2.0,5.0,65,0.00,,,0.00,313,Wunderground v.1.15,2013-06-28 16:25:00,
2013-06-28 10:30:00,72.6,60.2,25.97,NW,305,2.0,3.0,65,0.00,,,0.00,338,Wunderground v.1.15,2013-06-28 16:30:00,
2013-06-28 10:35:00,71.9,60.3,25.97,ESE,113,2.0,6.0,67,0.00,,,0.00,334,Wunderground v.1.15,2013-06-28 16:35:00,
2013-06-28 10:40:00,71.7,60.6,25.97,NNE,19,2.0,2.0,68,0.00,,,0.00,348,Wunderground v.1.15,2013-06-28 16:40:00,
2013-06-28 10:45:00,71.5,60.4,25.97,East,99,3.0,3.0,68,0.00,,,0.00,343,Wunderground v.1.15,2013-06-28 16:45:00,
2013-06-28 10:55:00,71.9,60.8,25.96,WSW,254,2.0,3.0,68,0.00,,,0.00,336,Wunderground v.1.15,2013-06-28 16:55:00,
2013-06-28 11:05:00,72.0,60.9,25.96,ESE,116,3.0,3.0,68,0.00,,,0.00,364,Wunderground v.1.15,2013-06-28 17:05:00,
2013-06-28 11:10:00,72.2,61.0,25.96,SW,221,3.0,3.0,68,0.00,,,0.00,237,Wunderground v.1.15,2013-06-28 17:10:00,
2013-06-28 11:16:00,72.2,60.6,25.96,NNE,19,3.0,3.0,67,0.00,,,0.00,362,Wunderground v.1.15,2013-06-28 17:16:00,
2013-06-28 11:25:00,72.0,61.3,25.95,North,360,2.0,3.0,69,0.00,,,0.00,227,Wunderground v.1.15,2013-06-28 17:25:00,
2013-06-28 11:30:00,72.2,61.0,25.95,NE,45,2.0,2.0,68,0.00,,,0.00,352,Wunderground v.1.15,2013-06-28 17:30:00,
2013-06-28 11:35:00,72.6,61.0,25.95,East,94,2.0,2.0,67,0.00,,,0.00,346,Wunderground v.1.15,2013-06-28 17:35:00,
2013-06-28 11:40:00,72.6,61.0,25.94,NNW,348,2.0,2.0,67,0.00,,,0.00,343,Wunderground v.1.15,2013-06-28 17:40:00,
2013-06-28 11:45:00,72.6,61.0,25.94,ESE,112,2.0,2.0,67,0.00,,,0.00,343,Wunderground v.1.15,2013-06-28 17:45:00,
2013-06-28 11:55:00,71.9,60.8,25.94,North,5,2.0,3.0,68,0.00,,,0.00,352,Wunderground v.1.15,2013-06-28 17:55:00,
2013-06-28 12:05:00,71.9,60.8,25.94,NNW,333,3.0,3.0,68,0.00,,,0.00,348,Wunderground v.1.15,2013-06-28 18:05:00,
2013-06-28 12:10:00,71.9,60.8,25.94,SSE,155,3.0,3.0,68,0.00,,,0.00,338,Wunderground v.1.15,2013-06-28 18:10:00,
2013-06-28 12:20:00,72.0,60.9,25.94,SE,145,2.0,2.0,68,0.00,,,0.00,294,Wunderground v.1.15,2013-06-28 18:20:00,
2013-06-28 12:25:00,72.2,61.0,25.94,East,96,3.0,3.0,68,0.00,,,0.00,278,Wunderground v.1.15,2013-06-28 18:25:00,
2013-06-28 12:30:00,72.6,61.0,25.94,ENE,63,2.0,3.0,67,0.00,,,0.00,281,Wunderground v.1.15,2013-06-28 18:30:00,
2013-06-28 12:40:00,72.4,60.8,25.94,WNW,285,2.0,2.0,67,0.00,,,0.00,316,Wunderground v.1.15,2013-06-28 18:40:00,
2013-06-28 12:45:00,72.7,61.5,25.94,NW,313,2.0,2.0,68,0.00,,,0.00,339,Wunderground v.1.15,2013-06-28 18:45:00,
2013-06-28 12:55:00,72.7,61.1,25.93,NW,304,2.0,3.0,67,0.00,,,0.00,362,Wunderground v.1.15,2013-06-28 18:55:00,
2013-06-28 13:00:00,73.1,61.1,25.93,North,5,2.0,3.0,66,0.00,,,0.00,364,Wunderground v.1.15,2013-06-28 19:00:00,
2013-06-28 13:10:00,73.4,60.5,25.93,North,355,2.0,6.0,64,0.00,,,0.00,367,Wunderground v.1.15,2013-06-28 19:10:00,
2013-06-28 13:16:00,73.4,60.9,25.93,NE,42,2.0,6.0,65,0.00,,,0.00,367,Wunderground v.1.15,2013-06-28 19:16:00,
2013-06-28 13:25:00,73.4,60.0,25.92,ENE,72,1.0,2.0,63,0.00,,,0.00,383,Wunderground v.1.15,2013-06-28 19:25:00,
2013-06-28 13:35:00,73.9,61.0,25.92,SE,138,1.0,2.0,64,0.00,,,0.00,411,Wunderground v.1.15,2013-06-28 19:35:00,
2013-06-28 13:45:00,74.6,60.3,25.91,East,94,1.0,2.0,61,0.00,,,0.00,413,Wunderground v.1.15,2013-06-28 19:45:00,
2013-06-28 13:50:00,74.6,60.3,25.91,NE,54,1.0,1.0,61,0.00,,,0.00,406,Wunderground v.1.15,2013-06-28 19:50:00,
2013-06-28 13:55:00,74.6,60.3,25.91,NNE,27,1.0,1.0,61,0.00,,,0.00,396,Wunderground v.1.15,2013-06-28 19:55:00,
2013-06-28 14:05:00,75.2,59.9,25.91,East,84,2.0,3.0,59,0.00,,,0.00,374,Wunderground v.1.15,2013-06-28 20:05:00,
2013-06-28 14:15:00,75.3,59.0,25.91,East,90,1.0,2.0,57,0.00,,,0.00,315,Wunderground v.1.15,2013-06-28 20:15:00,
2013-06-28 14:25:00,75.7,60.4,25.91,South,190,1.0,1.0,59,0.00,,,0.00,258,Wunderground v.1.15,2013-06-28 20:25:00,
2013-06-28 14:30:00,75.7,59.9,25.91,ENE,71,1.0,1.0,58,0.00,,,0.00,250,Wunderground v.1.15,2013-06-28 20:30:00,
2013-06-28 14:40:00,75.3,60.0,25.90,NNE,28,1.0,1.0,59,0.00,,,0.00,211,Wunderground v.1.15,2013-06-28 20:40:00,
2013-06-28 14:45:00,75.0,60.6,25.90,NW,318,2.0,2.0,61,0.00,,,0.00,186,Wunderground v.1.15,2013-06-28 20:45:00,
2013-06-28 14:50:00,74.5,60.6,25.90,NE,53,2.0,2.0,62,0.00,,,0.00,200,Wunderground v.1.15,2013-06-28 20:50:00,
2013-06-28 14:55:00,74.1,60.7,25.90,North,5,1.0,2.0,63,0.00,,,0.00,216,Wunderground v.1.15,2013-06-28 20:55:00,
2013-06-28 15:01:00,73.9,61.0,25.90,NW,319,2.0,2.0,64,0.00,,,0.00,199,Wunderground v.1.15,2013-06-28 21:01:00,
2013-06-28 15:10:00,73.8,60.9,25.90,NNE,32,2.0,2.0,64,0.00,,,0.00,171,Wunderground v.1.15,2013-06-28 21:10:00,
2013-06-28 15:20:00,74.1,61.1,25.91,NW,325,1.0,1.0,64,0.00,,,0.00,113,Wunderground v.1.15,2013-06-28 21:20:00,
2013-06-28 15:25:00,74.3,60.9,25.91,NW,325,0.0,1.0,63,0.00,,,0.00,104,Wunderground v.1.15,2013-06-28 21:25:00,
2013-06-28 15:30:00,74.5,59.2,25.91,SW,232,0.0,1.0,59,0.00,,,0.00,132,Wunderground v.1.15,2013-06-28 21:30:00,
2013-06-28 15:36:00,74.6,59.8,25.91,SE,136,0.0,4.0,60,0.00,,,0.00,163,Wunderground v.1.15,2013-06-28 21:36:00,
2013-06-28 15:45:00,74.6,60.7,25.91,SW,225,0.0,1.0,62,0.00,,,0.00,151,Wunderground v.1.15,2013-06-28 21:45:00,
2013-06-28 15:50:00,74.5,61.5,25.91,SW,225,0.0,0.0,64,0.00,,,0.00,142,Wunderground v.1.15,2013-06-28 21:50:00,
2013-06-28 15:55:00,74.5,61.1,25.91,SE,134,0.0,0.0,63,0.00,,,0.00,144,Wunderground v.1.15,2013-06-28 21:55:00,
2013-06-28 16:00:00,74.3,61.3,25.91,SSW,212,0.0,2.0,64,0.00,,,0.00,144,Wunderground v.1.15,2013-06-28 22:00:00,
2013-06-28 16:10:00,74.1,61.6,25.91,SSE,148,0.0,0.0,65,0.00,,,0.00,132,Wunderground v.1.15,2013-06-28 22:10:00,
2013-06-28 16:15:00,73.9,60.5,25.91,SSW,205,0.0,0.0,63,0.00,,,0.00,132,Wunderground v.1.15,2013-06-28 22:15:00,
2013-06-28 16:25:00,73.8,60.9,25.91,SSW,205,0.0,0.0,64,0.00,,,0.00,123,Wunderground v.1.15,2013-06-28 22:25:00,
2013-06-28 16:30:00,73.8,60.0,25.91,SSW,205,0.0,1.0,62,0.00,,,0.00,116,Wunderground v.1.15,2013-06-28 22:30:00,
2013-06-28 16:40:00,73.8,59.5,25.91,SSW,205,0.0,0.0,61,0.00,,,0.00,97,Wunderground v.1.15,2013-06-28 22:40:00,
2013-06-28 16:45:00,73.8,60.0,25.91,SSW,205,0.0,0.0,62,0.00,,,0.00,90,Wunderground v.1.15,2013-06-28 22:45:00,
2013-06-28 16:55:00,73.8,60.4,25.92,SSW,205,0.0,0.0,63,0.00,,,0.00,70,Wunderground v.1.15,2013-06-28 22:55:00,
2013-06-28 17:00:00,73.8,60.0,25.92,West,259,0.0,2.0,62,0.00,,,0.00,56,Wunderground v.1.15,2013-06-28 23:00:00,
2013-06-28 17:10:00,72.9,62.9,25.92,West,272,2.0,2.0,71,0.00,,,0.00,47,Wunderground v.1.15,2013-06-28 23:10:00,
2013-06-28 17:15:00,72.6,63.1,25.92,West,276,1.0,2.0,72,0.00,,,0.00,40,Wunderground v.1.15,2013-06-28 23:15:00,
2013-06-28 17:25:00,71.2,62.9,25.93,SW,220,3.0,3.0,75,0.00,,,0.00,25,Wunderground v.1.15,2013-06-28 23:25:00,
2013-06-28 17:30:00,70.7,63.1,25.93,SW,222,2.0,2.0,77,0.00,,,0.00,23,Wunderground v.1.15,2013-06-28 23:30:00,
2013-06-28 17:35:00,70.0,62.8,25.94,WSW,248,2.0,4.0,78,0.00,,,0.00,18,Wunderground v.1.15,2013-06-28 23:35:00,
2013-06-28 17:45:00,69.0,62.9,25.94,WSW,249,3.0,4.0,81,0.00,,,0.00,5,Wunderground v.1.15,2013-06-28 23:45:00,
2013-06-28 17:50:00,68.7,63.3,25.94,SW,236,3.0,7.0,83,0.00,,,0.00,0,Wunderground v.1.15,2013-06-28 23:50:00,
2013-06-28 18:00:00,67.8,63.1,25.95,WSW,244,2.0,5.0,85,0.00,,,0.00,0,Wunderground v.1.15,2013-06-29 00:00:00,
2013-06-28 18:05:00,67.5,63.2,25.96,West,269,2.0,5.0,86,0.00,,,0.00,0,Wunderground v.1.15,2013-06-29 00:05:00,
2013-06-28 18:15:00,67.0,63.0,25.96,WNW,291,2.0,3.0,87,0.00,,,0.00,0,Wunderground v.1.15,2013-06-29 00:15:00,
2013-06-28 18:25:00,66.7,63.4,25.96,North,9,1.0,2.0,89,0.00,,,0.00,0,Wunderground v.1.15,2013-06-29 00:25:00,
2013-06-28 18:30:00,66.3,63.3,25.96,SSW,213,2.0,2.0,90,0.00,,,0.00,0,Wunderground v.1.15,2013-06-29 00:30:00,
2013-06-28 18:35:00,66.2,63.5,25.96,West,277,2.0,2.0,91,0.00,,,0.00,0,Wunderground v.1.15,2013-06-29 00:35:00,
2013-06-28 18:40:00,65.9,63.2,25.96,NW,317,1.0,1.0,91,0.00,,,0.00,0,Wunderground v.1.15,2013-06-29 00:40:00,
2013-06-28 18:45:00,65.7,63.6,25.96,WSW,246,2.0,4.0,93,0.00,,,0.00,0,Wunderground v.1.15,2013-06-29 00:45:00,
2013-06-28 18:50:00,65.5,63.7,25.97,SW,232,1.0,4.0,94,0.00,,,0.00,0,Wunderground v.1.15,2013-06-29 00:50:00,
2013-06-28 18:55:00,65.5,64.0,25.97,NNW,348,1.0,4.0,95,0.00,,,0.00,0,Wunderground v.1.15,2013-06-29 00:55:00,
2013-06-28 19:05:00,65.4,63.9,25.97,WSW,240,2.0,2.0,95,0.00,,,0.00,0,Wunderground v.1.15,2013-06-29 01:05:00,
2013-06-28 19:10:00,65.2,63.7,25.97,NNW,333,2.0,4.0,95,0.00,,,0.00,0,Wunderground v.1.15,2013-06-29 01:10:00,
2013-06-28 19:15:00,65.1,63.6,25.98,SSW,209,2.0,4.0,95,0.00,,,0.00,0,Wunderground v.1.15,2013-06-29 01:15:00,
2013-06-28 19:20:00,65.1,63.6,25.98,WNW,291,2.0,2.0,95,0.00,,,0.00,0,Wunderground v.1.15,2013-06-29 01:20:00,
2013-06-28 19:30:00,64.9,63.7,25.98,West,259,2.0,2.0,96,0.00,,,0.00,0,Wunderground v.1.15,2013-06-29 01:30:00,
2013-06-28 19:40:00,64.9,63.7,25.98,WNW,287,1.0,2.0,96,0.00,,,0.00,0,Wunderground v.1.15,2013-06-29 01:40:00,
2013-06-28 19:45:00,64.7,63.5,25.98,WNW,296,2.0,2.0,96,0.00,,,0.00,0,Wunderground v.1.15,2013-06-29 01:45:00,
2013-06-28 19:50:00,64.7,63.2,25.98,NW,304,1.0,1.0,95,0.00,,,0.00,0,Wunderground v.1.15,2013-06-29 01:50:00,
2013-06-28 20:00:00,64.7,63.2,25.97,West,267,1.0,1.0,95,0.00,,,0.00,0,Wunderground v.1.15,2013-06-29 02:00:00,
2013-06-28 20:05:00,64.7,63.2,25.98,West,267,0.0,1.0,95,0.00,,,0.00,0,Wunderground v.1.15,2013-06-29 02:05:00,
2013-06-28 20:15:00,64.9,63.1,25.98,NNW,335,1.0,1.0,94,0.00,,,0.00,0,Wunderground v.1.15,2013-06-29 02:15:00,
2013-06-28 20:20:00,64.9,63.1,25.98,WNW,294,1.0,1.0,94,0.00,,,0.00,0,Wunderground v.1.15,2013-06-29 02:20:00,
2013-06-28 20:30:00,64.9,62.8,25.98,West,271,1.0,1.0,93,0.00,,,0.00,0,Wunderground v.1.15,2013-06-29 02:30:00,
2013-06-28 20:40:00,65.1,62.7,25.98,WSW,254,1.0,1.0,92,0.00,,,0.00,0,Wunderground v.1.15,2013-06-29 02:40:00,
2013-06-28 20:45:00,65.1,62.1,25.98,SW,221,1.0,1.0,90,0.00,,,0.00,0,Wunderground v.1.15,2013-06-29 02:45:00,
2013-06-28 20:50:00,65.1,62.1,25.98,WSW,257,1.0,1.0,90,0.00,,,0.00,0,Wunderground v.1.15,2013-06-29 02:50:00,
2013-06-28 20:55:00,65.1,61.8,25.97,WNW,282,1.0,1.0,89,0.00,,,0.00,0,Wunderground v.1.15,2013-06-29 02:55:00,
2013-06-28 21:00:00,64.9,61.6,25.97,WNW,282,0.0,0.0,89,0.00,,,0.00,0,Wunderground v.1.15,2013-06-29 03:00:00,
2013-06-28 21:05:00,64.9,61.6,25.97,WNW,282,0.0,0.0,89,0.00,,,0.00,0,Wunderground v.1.15,2013-06-29 03:05:00,
2013-06-28 21:10:00,64.9,61.6,25.98,WNW,282,0.0,0.0,89,0.00,,,0.00,0,Wunderground v.1.15,2013-06-29 03:10:00,
2013-06-28 21:20:00,64.9,61.6,25.98,WNW,282,0.0,0.0,89,0.00,,,0.00,0,Wunderground v.1.15,2013-06-29 03:20:00,
2013-06-28 21:25:00,64.7,61.4,25.98,WNW,282,0.0,0.0,89,0.00,,,0.00,0,Wunderground v.1.15,2013-06-29 03:25:00,
2013-06-28 21:30:00,64.7,61.4,25.98,WNW,282,0.0,0.0,89,0.00,,,0.00,0,Wunderground v.1.15,2013-06-29 03:30:00,
2013-06-28 21:35:00,64.6,61.3,25.98,WNW,282,0.0,0.0,89,0.00,,,0.00,0,Wunderground v.1.15,2013-06-29 03:35:00,
2013-06-28 21:40:00,64.6,61.3,25.98,WNW,282,0.0,0.0,89,0.00,,,0.00,0,Wunderground v.1.15,2013-06-29 03:40:00,
2013-06-28 21:45:00,64.6,61.3,25.98,WNW,282,0.0,0.0,89,0.00,,,0.00,0,Wunderground v.1.15,2013-06-29 03:45:00,
2013-06-28 21:50:00,64.4,61.1,25.98,WNW,282,0.0,0.0,89,0.00,,,0.00,0,Wunderground v.1.15,2013-06-29 03:50:00,
2013-06-28 21:55:00,64.4,61.1,25.98,WNW,282,0.0,0.0,89,0.00,,,0.00,0,Wunderground v.1.15,2013-06-29 03:55:00,
2013-06-28 22:01:00,64.4,61.1,25.98,WNW,282,0.0,0.0,89,0.00,,,0.00,0,Wunderground v.1.15,2013-06-29 04:01:00,
2013-06-28 22:05:00,64.4,61.1,25.98,WNW,283,0.0,0.0,89,0.00,,,0.00,0,Wunderground v.1.15,2013-06-29 04:05:00,
2013-06-28 22:10:00,64.2,60.9,25.98,WNW,282,0.0,0.0,89,0.00,,,0.00,0,Wunderground v.1.15,2013-06-29 04:10:00,
2013-06-28 22:15:00,64.2,60.9,25.98,WNW,282,0.0,0.0,89,0.00,,,0.00,0,Wunderground v.1.15,2013-06-29 04:15:00,
2013-06-28 22:20:00,64.2,61.2,25.98,WNW,282,0.0,0.0,90,0.00,,,0.00,0,Wunderground v.1.15,2013-06-29 04:20:00,
2013-06-28 22:25:00,64.2,61.2,25.98,WNW,282,0.0,0.0,90,0.00,,,0.00,0,Wunderground v.1.15,2013-06-29 04:25:00,
2013-06-28 22:30:00,64.2,61.2,25.98,WNW,282,0.0,0.0,90,0.00,,,0.00,0,Wunderground v.1.15,2013-06-29 04:30:00,
2013-06-28 22:35:00,64.1,61.1,25.98,WNW,282,0.0,0.0,90,0.00,,,0.00,0,Wunderground v.1.15,2013-06-29 04:35:00,
2013-06-28 22:40:00,64.1,61.4,25.98,WNW,282,0.0,0.0,91,0.00,,,0.00,0,Wunderground v.1.15,2013-06-29 04:40:00,
2013-06-28 22:45:00,64.1,61.4,25.98,WNW,282,0.0,0.0,91,0.00,,,0.00,0,Wunderground v.1.15,2013-06-29 04:45:00,
2013-06-28 22:50:00,64.2,61.5,25.98,WNW,282,0.0,0.0,91,0.00,,,0.00,0,Wunderground v.1.15,2013-06-29 04:50:00,
2013-06-28 23:00:00,64.2,61.5,25.97,WNW,282,0.0,0.0,91,0.00,,,0.00,0,Wunderground v.1.15,2013-06-29 05:00:00,
2013-06-28 23:05:00,64.2,61.5,25.97,WNW,282,0.0,0.0,91,0.00,,,0.00,0,Wunderground v.1.15,2013-06-29 05:05:00,
2013-06-28 23:10:00,64.2,61.5,25.97,South,182,0.0,1.0,91,0.00,,,0.00,0,Wunderground v.1.15,2013-06-29 05:10:00,
2013-06-28 23:15:00,64.2,61.5,25.97,South,182,0.0,1.0,91,0.00,,,0.00,0,Wunderground v.1.15,2013-06-29 05:15:00,
2013-06-28 23:25:00,64.2,61.5,25.97,South,182,0.0,0.0,91,0.00,,,0.00,0,Wunderground v.1.15,2013-06-29 05:25:00,
2013-06-28 23:35:00,64.2,61.5,25.96,South,182,0.0,0.0,91,0.00,,,0.00,0,Wunderground v.1.15,2013-06-29 05:35:00,
2013-06-28 23:40:00,64.2,61.5,25.96,South,182,0.0,0.0,91,0.00,,,0.00,0,Wunderground v.1.15,2013-06-29 05:40:00,
2013-06-28 23:45:00,64.1,61.4,25.96,South,182,0.0,0.0,91,0.00,,,0.00,0,Wunderground v.1.15,2013-06-29 05:45:00,
2013-06-28 23:55:00,64.1,61.4,25.95,South,182,0.0,0.0,91,0.00,,,0.00,0,Wunderground v.1.15,2013-06-29 05:55:00,